Time;durP1;ratioP1;P1;durP2;ratioP2;P2;SDS_P1;SDS_P2;PMS_P1;PMS_P2;Temp;Humidity;BMP_temperature;BMP_pressure;BME280_temperature;BME280_humidity;BME280_pressure;Samples;Min_cycle;Max_cycle;Signal;HPM_P1;HPM_P2
2022/02/09 00:02:21;;;;;;;6.50;5.90;;;9.60;1.00;9.90;101852.00;;;;4922753;29;20536;-84
2022/02/09 00:05:12;;;;;;;6.13;5.53;;;9.60;1.00;9.90;101845.00;;;;4901937;29;20534;-81
2022/02/09 00:07:48;;;;;;;7.93;5.80;;;9.50;1.00;9.80;101827.00;;;;4904026;29;20491;-85
2022/02/09 00:10:18;;;;;;;6.30;5.60;;;9.50;1.00;9.80;101828.00;;;;4912348;29;21006;-83
2022/02/09 00:12:55;;;;;;;6.53;5.83;;;9.50;1.00;9.80;101846.00;;;;4898900;29;20551;-83
2022/02/09 00:15:33;;;;;;;6.50;4.67;;;9.40;1.00;9.80;101834.00;;;;4908015;29;20522;-81
2022/02/09 00:18:11;;;;;;;7.20;5.93;;;9.50;1.00;9.80;101810.00;;;;4903720;29;20477;-84
2022/02/09 00:40:54;;;;;;;8.80;6.17;;;9.40;1.00;9.80;101814.00;;;;4881042;29;20482;-84
2022/02/09 00:43:50;;;;;;;6.20;5.60;;;9.50;1.00;9.80;101810.00;;;;4893791;29;21002;-85
2022/02/09 01:12:01;;;;;;;7.60;6.20;;;9.70;1.00;9.90;101791.00;;;;4907833;29;20468;-83
2022/02/09 01:39:49;;;;;;;6.13;5.40;;;9.40;1.00;9.70;101809.00;;;;4894228;29;20485;-84
2022/02/09 01:56:09;;;;;;;5.93;5.23;;;9.80;1.00;9.70;101780.00;;;;4931360;29;20471;-82
2022/02/09 01:58:37;;;;;;;6.53;5.93;;;9.30;1.00;9.70;101795.00;;;;4911845;29;21035;-81
2022/02/09 02:01:05;;;;;;;6.27;5.67;;;9.20;1.00;9.70;101797.00;;;;4906002;29;20462;-82
2022/02/09 02:03:34;;;;;;;6.53;5.83;;;9.20;1.00;9.70;101787.00;;;;4909672;29;20461;-82
2022/02/09 02:06:02;;;;;;;6.93;5.40;;;9.30;1.00;9.70;101802.00;;;;4906355;29;20901;-82
2022/02/09 02:08:33;;;;;;;6.03;5.40;;;9.60;1.00;9.80;101779.00;;;;4893867;29;20490;-81
2022/02/09 02:11:08;;;;;;;10.33;5.40;;;9.40;1.00;9.70;101758.00;;;;4904935;29;20481;-81
2022/02/09 02:13:53;;;;;;;6.57;5.90;;;9.30;1.00;9.80;101792.00;;;;4912635;29;20462;-82
2022/02/09 02:16:31;;;;;;;5.90;5.30;;;9.40;1.00;9.80;101764.00;;;;4906847;29;20506;-81
2022/02/09 02:19:03;;;;;;;6.87;6.07;;;9.50;1.00;9.80;101792.00;;;;4893587;29;20482;-81
2022/02/09 02:21:45;;;;;;;5.80;5.20;;;9.50;1.00;9.90;101788.00;;;;4907721;29;20533;-81
2022/02/09 02:30:18;;;;;;;5.90;5.30;;;9.90;1.00;9.90;101778.00;;;;4882633;29;20491;-82
2022/02/09 02:33:04;;;;;;;6.13;5.53;;;9.60;1.00;10.00;101764.00;;;;4930060;29;20462;-82
2022/02/09 02:38:50;;;;;;;6.83;5.60;;;9.80;1.00;10.00;101765.00;;;;4922779;29;20467;-81
2022/02/09 02:45:03;;;;;;;5.80;4.90;;;9.70;1.00;9.90;101757.00;;;;4903765;29;20457;-81
2022/02/09 02:47:44;;;;;;;5.80;5.07;;;9.60;1.00;9.50;101737.00;;;;4906803;29;20491;-81
2022/02/09 03:10:13;;;;;;;5.97;5.37;;;9.30;1.00;9.70;101735.00;;;;4897530;29;20498;-82
2022/02/09 03:12:45;;;;;;;6.27;5.67;;;9.30;1.00;9.70;101746.00;;;;4912010;29;20471;-82
2022/02/09 03:15:32;;;;;;;5.63;5.07;;;9.30;1.00;9.70;101723.00;;;;4921359;29;21129;-83
2022/02/09 03:18:28;;;;;;;4.73;4.23;;;9.30;1.00;9.70;101744.00;;;;4906157;29;20455;-82
2022/02/09 03:21:02;;;;;;;5.63;5.00;;;9.30;1.00;9.70;101724.00;;;;4893871;29;20469;-81
2022/02/09 03:23:44;;;;;;;5.80;4.80;;;9.30;1.00;9.70;101731.00;;;;4927702;29;20502;-81
2022/02/09 03:42:58;;;;;;;5.60;4.73;;;9.50;1.00;9.60;101706.00;;;;4898334;29;20498;-82
2022/02/09 03:48:36;;;;;;;5.20;4.60;;;9.30;1.00;9.60;101704.00;;;;4910137;29;20993;-82
2022/02/09 03:56:55;;;;;;;8.20;5.47;;;9.30;1.00;9.70;101711.00;;;;4904515;29;20455;-82
2022/02/09 03:59:24;;;;;;;6.60;4.80;;;9.30;1.00;9.70;101717.00;;;;4887388;29;20491;-82
2022/02/09 04:01:54;;;;;;;5.67;5.13;;;9.30;1.00;9.60;101701.00;;;;4905075;29;20880;-82
2022/02/09 04:04:22;;;;;;;6.53;5.80;;;9.20;1.00;9.60;101688.00;;;;4927083;29;20840;-82
2022/02/09 04:06:52;;;;;;;7.13;5.83;;;9.30;1.00;9.60;101686.00;;;;4911442;29;20462;-82
2022/02/09 04:09:25;;;;;;;6.50;5.53;;;9.20;1.00;9.60;101697.00;;;;4890454;29;20482;-82
2022/02/09 04:12:01;;;;;;;6.47;5.00;;;9.20;1.00;9.60;101689.00;;;;4896915;29;20743;-82
2022/02/09 04:14:38;;;;;;;6.23;5.63;;;9.20;1.00;9.60;101694.00;;;;4905655;29;20462;-83
2022/02/09 04:17:27;;;;;;;5.97;5.30;;;9.20;1.00;9.70;101688.00;;;;4909812;29;20463;-82
2022/02/09 04:36:47;;;;;;;7.27;6.50;;;9.50;1.00;9.90;101686.00;;;;4905548;29;20453;-81
2022/02/09 04:39:24;;;;;;;7.60;6.50;;;9.60;1.00;9.90;101691.00;;;;4896946;29;20482;-81
2022/02/09 04:45:03;;;;;;;9.43;6.73;;;9.90;1.00;9.90;101674.00;;;;4899480;29;20465;-81
2022/02/09 04:47:47;;;;;;;6.33;5.73;;;9.60;1.00;9.90;101683.00;;;;4908114;29;20455;-82
2022/02/09 04:50:22;;;;;;;7.33;6.63;;;9.50;1.00;9.80;101691.00;;;;4908385;29;20483;-81
2022/02/09 04:53:16;;;;;;;6.93;5.87;;;9.40;1.00;9.80;101686.00;;;;4907199;29;20462;-81
2022/02/09 04:55:52;;;;;;;7.73;6.50;;;9.50;1.00;9.80;101678.00;;;;4923391;29;20589;-81
2022/02/09 04:58:35;;;;;;;7.23;6.33;;;9.40;1.00;9.70;101683.00;;;;4906416;29;20465;-82
2022/02/09 05:01:12;;;;;;;7.70;6.20;;;9.40;1.00;9.70;101667.00;;;;4906652;29;20496;-82
2022/02/09 05:04:06;;;;;;;7.80;7.10;;;9.30;1.00;9.60;101679.00;;;;4905615;29;20485;-81
2022/02/09 05:23:38;;;;;;;8.23;7.37;;;9.30;1.00;9.60;101684.00;;;;4921744;29;20546;-81
2022/02/09 05:26:09;;;;;;;7.63;6.93;;;9.50;1.00;9.50;101694.00;;;;4886964;29;20451;-81
2022/02/09 05:28:41;;;;;;;9.17;8.30;;;9.20;1.00;9.50;101696.00;;;;4893089;29;20590;-82
2022/02/09 05:31:10;;;;;;;8.90;7.50;;;9.20;1.00;9.50;101683.00;;;;4904163;29;20526;-82
2022/02/09 05:33:39;;;;;;;8.07;7.30;;;9.00;1.00;9.60;101688.00;;;;4927232;29;20478;-81
2022/02/09 05:36:07;;;;;;;8.47;7.50;;;9.10;1.00;9.50;101697.00;;;;4891734;29;20466;-82
2022/02/09 05:38:37;;;;;;;9.97;7.60;;;9.10;1.00;9.60;101685.00;;;;4909148;29;20482;-81
2022/02/09 05:41:06;;;;;;;9.90;7.47;;;9.20;1.00;9.70;101687.00;;;;4903873;29;20475;-80
2022/02/09 05:43:35;;;;;;;11.03;7.90;;;9.30;1.00;9.70;101684.00;;;;4903055;29;20534;-80
2022/02/09 05:51:39;;;;;;;8.27;7.43;;;9.30;1.00;9.70;101700.00;;;;4925806;29;20548;-82
2022/02/09 05:54:23;;;;;;;10.47;7.43;;;9.20;1.00;9.60;101698.00;;;;4924332;29;20550;-81
2022/02/09 05:57:12;;;;;;;8.90;7.40;;;9.20;1.00;9.60;101693.00;;;;4905087;29;20473;-82
2022/02/09 05:59:40;;;;;;;8.80;7.87;;;9.10;1.00;9.60;101685.00;;;;4911927;29;20485;-81
2022/02/09 06:02:10;;;;;;;9.10;7.60;;;9.20;1.00;9.60;101681.00;;;;4930304;29;20486;-82
2022/02/09 06:04:40;;;;;;;8.47;7.50;;;9.10;1.00;9.50;101696.00;;;;4934176;29;20463;-81
2022/02/09 06:07:08;;;;;;;8.87;7.97;;;9.10;1.00;9.50;101674.00;;;;4926027;29;20530;-81
2022/02/09 06:09:39;;;;;;;8.87;7.77;;;9.10;1.00;9.50;101691.00;;;;4930639;29;20494;-80
2022/02/09 06:12:13;;;;;;;8.00;7.20;;;9.00;1.00;9.50;101688.00;;;;4915652;29;20469;-81
2022/02/09 06:15:02;;;;;;;10.10;7.63;;;9.00;1.00;9.50;101683.00;;;;4920172;29;20457;-81
2022/02/09 06:20:19;;;;;;;10.20;7.93;;;9.10;1.00;9.60;101699.00;;;;4912914;29;20463;-80
2022/02/09 06:22:48;;;;;;;8.47;7.57;;;9.20;1.00;9.60;101673.00;;;;4912177;29;20468;-81
2022/02/09 06:25:18;;;;;;;10.50;8.10;;;9.20;1.00;9.60;101697.00;;;;4925091;29;20439;-82
2022/02/09 06:27:46;;;;;;;10.90;7.37;;;9.20;1.00;9.70;101684.00;;;;4927228;29;20458;-81
2022/02/09 06:30:14;;;;;;;11.40;7.67;;;9.30;1.00;9.70;101672.00;;;;4927989;29;20503;-79
2022/02/09 06:32:43;;;;;;;8.63;7.63;;;9.40;1.00;9.70;101697.00;;;;4927323;29;20571;-81
2022/02/09 06:35:18;;;;;;;9.30;8.00;;;9.40;1.00;9.70;101679.00;;;;4929079;29;20434;-80
2022/02/09 06:37:48;;;;;;;9.00;7.90;;;9.30;1.00;9.80;101709.00;;;;4924571;29;20467;-81
2022/02/09 06:40:20;;;;;;;11.20;8.67;;;9.40;1.00;9.80;101699.00;;;;4903230;29;20475;-80
2022/02/09 06:42:48;;;;;;;9.73;7.70;;;9.50;1.00;9.80;101698.00;;;;4914854;29;20546;-81
2022/02/09 06:45:20;;;;;;;8.87;7.93;;;9.70;1.00;9.70;101689.00;;;;4926282;29;20910;-79
2022/02/09 06:47:49;;;;;;;9.60;7.30;;;9.40;1.00;9.70;101700.00;;;;4931085;29;20460;-81
2022/02/09 06:50:24;;;;;;;8.87;7.93;;;9.40;1.00;9.70;101699.00;;;;4907404;29;20558;-81
2022/02/09 06:53:03;;;;;;;8.10;7.00;;;9.40;1.00;9.70;101697.00;;;;4919533;29;20542;-80
2022/02/09 06:55:34;;;;;;;7.90;7.10;;;9.40;1.00;9.70;101696.00;;;;4923595;29;20512;-80
2022/02/09 06:58:15;;;;;;;9.30;7.73;;;9.30;1.00;9.70;101698.00;;;;4917706;29;20443;-80
2022/02/09 07:00:43;;;;;;;11.30;7.07;;;9.40;1.00;9.60;101702.00;;;;4902480;29;20568;-81
2022/02/09 07:03:13;;;;;;;8.73;7.43;;;9.30;1.00;9.70;101678.00;;;;4923750;29;20610;-80
2022/02/09 07:05:41;;;;;;;8.30;6.83;;;9.30;1.00;9.70;101702.00;;;;4927627;29;20479;-80
2022/02/09 07:08:10;;;;;;;10.53;7.50;;;9.20;1.00;9.60;101694.00;;;;4904398;29;20470;-80
2022/02/09 07:10:40;;;;;;;9.67;7.20;;;9.30;1.00;9.60;101700.00;;;;4914190;29;20475;-80
2022/02/09 07:13:08;;;;;;;8.90;7.20;;;9.20;1.00;9.60;101692.00;;;;4894151;29;20541;-80
2022/02/09 07:15:41;;;;;;;10.00;7.40;;;9.20;1.00;9.60;101695.00;;;;4898132;29;20447;-80
2022/02/09 07:18:12;;;;;;;9.97;7.43;;;9.20;1.00;9.70;101682.00;;;;4893068;29;20502;-80
2022/02/09 07:20:52;;;;;;;8.73;7.47;;;9.30;1.00;9.70;101697.00;;;;4911945;29;21668;-80
2022/02/09 07:23:26;;;;;;;9.07;6.87;;;9.30;1.00;9.70;101699.00;;;;4915535;29;20450;-80
2022/02/09 07:26:04;;;;;;;8.07;6.57;;;9.20;1.00;9.70;101691.00;;;;4923101;29;20459;-80
2022/02/09 07:28:33;;;;;;;8.23;7.00;;;9.30;1.00;9.80;101683.00;;;;4921230;29;20478;-80
2022/02/09 07:31:03;;;;;;;7.20;6.50;;;9.40;1.00;9.80;101686.00;;;;4926344;29;20455;-81
2022/02/09 07:33:31;;;;;;;8.83;6.63;;;9.40;1.00;9.80;101662.00;;;;4923381;29;20470;-80
2022/02/09 07:36:00;;;;;;;9.00;6.27;;;9.40;1.00;9.80;101709.00;;;;4944604;29;20975;-81
2022/02/09 07:38:28;;;;;;;7.07;6.37;;;9.30;1.00;9.90;101689.00;;;;4941843;29;20503;-81
2022/02/09 07:41:00;;;;;;;8.50;7.17;;;9.40;1.00;9.80;101697.00;;;;4940188;29;20530;-82
2022/02/09 07:43:41;;;;;;;9.73;6.10;;;9.40;1.00;9.80;101700.00;;;;4910966;29;20550;-81
2022/02/09 07:46:39;;;;;;;9.57;6.50;;;9.50;1.00;10.00;101704.00;;;;4940635;29;20435;-80
2022/02/09 07:49:11;;;;;;;7.80;6.77;;;9.80;1.00;10.00;101704.00;;;;4917578;29;20825;-81
2022/02/09 07:51:52;;;;;;;6.90;5.40;;;9.70;1.00;10.00;101697.00;;;;4922336;29;20490;-81
2022/02/09 07:54:24;;;;;;;7.60;6.20;;;9.70;1.00;10.00;101703.00;;;;4926740;29;20461;-80
2022/02/09 07:56:54;;;;;;;5.80;5.20;;;9.70;1.00;10.00;101700.00;;;;4904228;29;20460;-81
2022/02/09 07:59:24;;;;;;;11.97;6.17;;;9.60;1.00;10.00;101690.00;;;;4902685;29;20547;-80
2022/02/09 08:01:53;;;;;;;7.80;5.87;;;9.70;1.00;10.10;101699.00;;;;4907579;29;20984;-80
2022/02/09 08:04:21;;;;;;;7.37;5.57;;;9.80;1.00;10.10;101699.00;;;;4906667;29;20460;-81
2022/02/09 08:06:50;;;;;;;7.83;4.73;;;9.80;1.00;10.10;101701.00;;;;4912441;29;20961;-81
2022/02/09 08:09:27;;;;;;;6.27;5.57;;;9.80;1.00;10.20;101682.00;;;;4896457;29;20482;-80
2022/02/09 08:12:22;;;;;;;10.30;6.07;;;9.90;1.00;10.20;101676.00;;;;4906668;29;20530;-81
2022/02/09 08:21:34;;;;;;;5.53;4.97;;;10.10;1.00;10.30;101671.00;;;;4927981;29;20474;-80
2022/02/09 08:29:02;;;;;;;7.33;5.00;;;10.10;1.00;10.50;101692.00;;;;4906742;29;21006;-81
2022/02/09 08:34:29;;;;;;;8.57;5.23;;;10.30;1.00;10.60;101688.00;;;;4825756;29;20994;-80
2022/02/09 08:36:57;;;;;;;7.13;4.37;;;10.40;1.00;10.70;101686.00;;;;4890507;29;20462;-80
2022/02/09 08:39:26;;;;;;;7.47;5.60;;;10.40;1.00;10.70;101699.00;;;;4892235;29;20864;-80
2022/02/09 08:41:54;;;;;;;6.60;4.87;;;10.40;1.00;10.80;101698.00;;;;4904365;29;20469;-80
2022/02/09 08:44:25;;;;;;;7.10;5.17;;;10.50;1.00;10.80;101694.00;;;;4893992;29;20459;-80
2022/02/09 08:46:55;;;;;;;5.63;4.50;;;10.60;1.00;10.90;101699.00;;;;4906694;29;20478;-81
2022/02/09 08:49:26;;;;;;;7.13;4.80;;;10.60;1.00;10.90;101689.00;;;;4908442;29;20493;-81
2022/02/09 08:51:58;;;;;;;6.83;4.83;;;10.60;1.00;10.90;101670.00;;;;4925742;29;20486;-81
2022/02/09 08:54:30;;;;;;;9.23;4.97;;;10.70;1.00;10.80;101692.00;;;;4903149;29;20490;-81
2022/02/09 08:57:02;;;;;;;6.23;5.17;;;10.60;1.00;11.00;101684.00;;;;4908565;29;20458;-82
2022/02/09 08:59:32;;;;;;;8.40;5.07;;;10.80;1.00;11.00;101685.00;;;;4890684;29;20494;-82
2022/02/09 09:02:03;;;;;;;8.87;5.70;;;10.70;1.00;11.00;101690.00;;;;4898920;29;20467;-81
2022/02/09 09:04:35;;;;;;;6.83;5.40;;;10.70;1.00;11.10;101686.00;;;;4909499;29;20458;-82
2022/02/09 09:07:10;;;;;;;6.10;5.10;;;10.80;1.00;11.10;101675.00;;;;4909975;29;20460;-82
2022/02/09 09:09:50;;;;;;;10.27;6.03;;;10.80;1.00;11.00;101687.00;;;;4893137;29;20476;-81
2022/02/09 10:34:09;;;;;;;8.13;5.80;;;12.80;1.00;13.00;101395.00;;;;4915904;29;20525;-84
2022/02/09 10:36:49;;;;;;;6.07;5.30;;;12.70;1.00;13.10;101416.00;;;;4917084;29;20458;-84
2022/02/09 10:39:26;;;;;;;6.70;5.60;;;12.80;1.00;12.90;101390.00;;;;4904342;29;20482;-83
2022/02/09 10:42:03;;;;;;;8.67;5.40;;;12.70;1.00;12.90;101375.00;;;;4920213;29;20507;-83
2022/02/09 10:44:45;;;;;;;6.53;4.47;;;12.60;1.00;12.90;101383.00;;;;4909445;29;20487;-81
2022/02/09 10:47:23;;;;;;;6.70;5.90;;;12.60;1.00;12.80;101387.00;;;;4913294;29;20486;-81
2022/02/09 10:50:10;;;;;;;7.63;5.70;;;12.50;1.00;12.70;101389.00;;;;4933225;29;20482;-82
2022/02/09 10:52:41;;;;;;;6.40;5.20;;;12.30;1.00;12.70;101377.00;;;;4915219;29;20497;-81
2022/02/09 10:55:39;;;;;;;8.57;5.80;;;12.20;1.00;12.70;101380.00;;;;4909892;29;20465;-82
2022/02/09 10:58:20;;;;;;;5.83;4.73;;;12.20;1.00;12.70;101385.00;;;;4916551;29;20463;-81
2022/02/09 11:00:49;;;;;;;9.70;5.37;;;12.20;1.00;12.80;101356.00;;;;4945118;29;20463;-82
2022/02/09 11:03:23;;;;;;;8.50;5.70;;;12.30;1.00;12.70;101390.00;;;;4919696;29;20450;-81
2022/02/09 11:05:55;;;;;;;10.33;6.40;;;12.40;1.00;13.10;101390.00;;;;4913856;29;20487;-82
2022/02/09 11:08:24;;;;;;;10.80;5.87;;;12.70;1.00;13.30;101377.00;;;;4929543;29;20561;-82
2022/02/09 11:10:54;;;;;;;8.07;4.67;;;13.00;1.00;13.20;101355.00;;;;4893778;29;21347;-82
2022/02/09 11:13:23;;;;;;;8.40;5.37;;;13.20;1.00;13.20;101374.00;;;;4910214;29;20537;-80
2022/02/09 11:15:52;;;;;;;8.47;6.03;;;12.80;1.00;13.40;101369.00;;;;4893196;29;20895;-82
2022/02/09 11:18:22;;;;;;;7.80;5.37;;;13.00;1.00;13.50;101344.00;;;;4901100;29;20458;-83
2022/02/09 11:21:12;;;;;;;9.43;5.27;;;13.10;1.00;13.60;101295.00;;;;4886413;29;20454;-84
2022/02/09 11:23:44;;;;;;;7.37;5.77;;;13.40;1.00;13.60;101268.00;;;;4906961;29;20473;-83
2022/02/09 11:26:40;;;;;;;5.80;5.20;;;13.30;1.00;13.70;101299.00;;;;4901977;29;20959;-84
2022/02/09 11:29:28;;;;;;;6.20;4.90;;;13.40;1.00;13.70;101438.00;;;;4896240;29;20486;-84
2022/02/09 11:32:23;;;;;;;5.53;4.70;;;13.50;1.00;14.00;101549.00;;;;4909361;29;20467;-83
2022/02/09 11:35:24;;;;;;;6.37;4.10;;;13.80;1.00;14.20;101435.00;;;;4906324;29;20470;-83
2022/02/09 11:40:46;;;;;;;7.17;5.10;;;13.90;1.00;13.90;101449.00;;;;4904607;29;20487;-83
2022/02/09 11:43:48;;;;;;;5.83;4.30;;;13.60;1.00;13.60;101437.00;;;;4914738;29;20451;-83
2022/02/09 11:46:58;;;;;;;5.00;4.40;;;13.40;1.00;13.50;101459.00;;;;4890972;29;20471;-85
2022/02/09 11:49:58;;;;;;;7.00;4.87;;;13.10;1.00;13.60;101447.00;;;;4922697;29;20470;-83
2022/02/09 11:56:36;;;;;;;8.87;4.80;;;13.50;1.00;13.40;101439.00;;;;4913387;29;20469;-82
2022/02/09 12:10:21;;;;;;;7.30;4.50;;;13.70;1.00;14.00;101432.00;;;;4910033;29;20919;-83
2022/02/09 12:13:02;;;;;;;6.00;3.90;;;13.70;1.00;14.10;101424.00;;;;4917937;29;21141;-82
2022/02/09 12:18:59;;;;;;;5.57;3.30;;;13.90;1.00;14.30;101428.00;;;;4909992;29;20497;-83
2022/02/09 12:21:43;;;;;;;5.57;3.67;;;14.00;1.00;14.40;101415.00;;;;4929045;29;20454;-81
2022/02/09 12:24:24;;;;;;;4.00;3.00;;;14.20;1.00;14.30;101413.00;;;;4913122;29;20553;-82
2022/02/09 12:27:06;;;;;;;4.60;3.80;;;14.10;1.00;14.50;101421.00;;;;4894554;29;20827;-85
2022/02/09 12:29:38;;;;;;;4.43;3.60;;;14.20;1.00;14.40;101427.00;;;;4939998;29;20487;-83
2022/02/09 12:32:24;;;;;;;6.23;4.37;;;14.20;1.00;14.40;101417.00;;;;4932100;29;20476;-83
2022/02/09 12:34:58;;;;;;;4.50;3.43;;;14.20;1.00;14.40;101421.00;;;;4929738;29;20458;-82
2022/02/09 12:37:29;;;;;;;5.73;3.30;;;14.00;1.00;14.40;101387.00;;;;4912492;29;20552;-83
2022/02/09 12:40:01;;;;;;;5.10;3.67;;;13.90;1.00;14.50;101390.00;;;;4908557;29;20477;-81
2022/02/09 12:42:33;;;;;;;4.23;3.33;;;14.10;1.00;14.60;101393.00;;;;4908699;29;20457;-81
2022/02/09 12:45:06;;;;;;;4.37;3.50;;;14.20;1.00;14.70;101388.00;;;;4914676;29;20526;-82
2022/02/09 12:47:39;;;;;;;6.67;3.30;;;14.30;1.00;14.90;101388.00;;;;4915493;29;20558;-82
2022/02/09 12:50:11;;;;;;;6.70;3.40;;;14.40;1.00;14.90;101390.00;;;;4907340;29;20937;-82
2022/02/09 12:52:41;;;;;;;6.20;3.63;;;14.50;1.00;14.70;101380.00;;;;4914359;29;20491;-83
2022/02/09 12:55:15;;;;;;;5.33;3.60;;;14.50;1.00;14.50;101363.00;;;;4931885;29;20474;-82
2022/02/09 12:57:49;;;;;;;3.73;2.60;;;14.20;1.00;14.30;101384.00;;;;4901014;29;20467;-85
2022/02/09 13:00:28;;;;;;;6.23;3.00;;;13.90;1.00;14.00;101373.00;;;;4903747;29;20928;-77
2022/02/09 13:03:01;;;;;;;4.10;3.27;;;13.60;1.00;13.80;101333.00;;;;4902218;29;20450;-78
2022/02/09 13:05:32;;;;;;;3.80;2.93;;;13.40;1.00;13.70;101374.00;;;;4901091;29;20537;-81
2022/02/09 13:08:04;;;;;;;6.40;3.50;;;13.30;1.00;13.80;101368.00;;;;4905563;29;20512;-86
2022/02/09 13:10:36;;;;;;;9.67;3.53;;;13.20;1.00;13.70;101348.00;;;;4905443;29;20584;-83
2022/02/09 13:13:10;;;;;;;5.27;2.90;;;13.10;1.00;13.60;101380.00;;;;4905120;29;20574;-84
2022/02/09 13:15:46;;;;;;;5.30;3.03;;;13.10;1.00;13.90;101372.00;;;;4905539;29;20455;-84
2022/02/09 13:18:55;;;;;;;6.10;4.37;;;13.30;1.00;13.60;101361.00;;;;4926701;29;20458;-84
2022/02/09 13:25:15;;;;;;;7.43;3.17;;;13.40;1.00;13.90;101355.00;;;;4921662;29;20531;-83
2022/02/09 14:02:43;;;;;;;5.33;3.20;;;13.80;1.00;14.30;101318.00;;;;4946986;29;20498;-83
2022/02/09 14:03:34;;;;;;;10.13;3.43;;;13.90;1.00;14.50;101331.00;;;;4911815;29;20489;-84
2022/02/09 14:12:02;;;;;;;5.23;2.50;;;14.30;1.00;14.80;101320.00;;;;4901284;29;20627;-84
2022/02/09 14:14:59;;;;;;;3.97;1.93;;;14.40;1.00;14.80;101314.00;;;;4896007;29;20479;-84
2022/02/09 14:17:55;;;;;;;6.43;2.63;;;14.40;1.00;14.70;101314.00;;;;4928796;29;20923;-83
2022/02/09 14:32:27;;;;;;;5.10;3.03;;;14.00;1.00;14.70;101320.00;;;;4921069;29;20466;-84
2022/02/09 14:52:01;;;;;;;3.70;2.60;;;14.40;1.00;14.60;101287.00;;;;4869302;29;20540;-84
2022/02/09 14:54:37;;;;;;;12.27;3.23;;;14.30;1.00;14.60;101281.00;;;;4917235;29;20517;-85
2022/02/09 14:57:11;;;;;;;7.77;3.40;;;14.30;1.00;14.70;101263.00;;;;4909933;29;20944;-84
2022/02/09 14:59:52;;;;;;;5.27;2.60;;;14.30;1.00;14.70;101295.00;;;;4910628;29;20482;-83
2022/02/09 15:02:34;;;;;;;6.03;3.10;;;14.30;1.00;14.70;101269.00;;;;4897618;29;20534;-84
2022/02/09 15:05:50;;;;;;;5.00;2.43;;;14.40;1.00;14.70;101277.00;;;;4897882;29;20834;-84
2022/02/09 15:08:23;;;;;;;6.20;2.90;;;14.30;1.00;14.70;101281.00;;;;4908345;29;20478;-83
2022/02/09 15:11:03;;;;;;;5.17;2.20;;;14.40;1.00;14.80;101260.00;;;;4908240;29;20485;-83
2022/02/09 15:13:42;;;;;;;4.37;2.77;;;14.40;1.00;14.90;101266.00;;;;4898439;29;20474;-82
2022/02/09 15:16:18;;;;;;;5.80;2.60;;;14.60;1.00;14.90;101277.00;;;;4905165;29;21050;-80
2022/02/09 15:24:40;;;;;;;3.90;2.50;;;14.80;1.00;15.10;101264.00;;;;4861637;29;20468;-82
2022/02/09 15:27:14;;;;;;;6.00;2.40;;;14.80;1.00;15.10;101269.00;;;;4899103;29;20465;-81
2022/02/09 15:29:45;;;;;;;4.13;2.33;;;14.80;1.00;15.00;101253.00;;;;4905020;29;20486;-83
2022/02/09 15:32:26;;;;;;;5.70;2.33;;;14.80;1.00;14.90;101259.00;;;;4905815;29;20503;-82
2022/02/09 15:34:57;;;;;;;5.37;2.57;;;14.80;1.00;14.70;101243.00;;;;4940692;28;20571;-84
2022/02/09 15:37:35;;;;;;;7.37;3.40;;;14.60;1.00;14.80;101254.00;;;;4929830;29;20455;-83
2022/02/09 15:40:10;;;;;;;5.30;3.00;;;14.50;1.00;14.70;101252.00;;;;4924983;29;20478;-82
2022/02/09 15:56:31;;;;;;;6.10;3.30;;;14.00;1.00;14.10;101227.00;;;;4910536;29;20515;-84
2022/02/09 16:10:47;;;;;;;8.53;3.70;;;13.70;1.00;13.90;101243.00;;;;4915465;29;20482;-84
2022/02/09 16:21:55;;;;;;;8.30;3.70;;;13.60;1.00;13.40;101308.00;;;;4841366;29;20470;-81
2022/02/09 16:24:31;;;;;;;6.90;3.90;;;13.30;1.00;13.50;101262.00;;;;4911267;29;21404;-82
2022/02/09 16:46:20;;;;;;;6.80;3.83;;;12.70;1.00;13.00;101264.00;;;;4910295;29;20478;-84
2022/02/09 16:48:57;;;;;;;9.03;3.97;;;12.70;1.00;12.90;101260.00;;;;4906464;29;20639;-81
2022/02/09 16:51:31;;;;;;;10.47;4.33;;;12.60;1.00;12.80;101254.00;;;;4929734;29;20494;-82
2022/02/09 16:54:21;;;;;;;8.97;3.93;;;12.50;1.00;12.70;101248.00;;;;4910280;29;20464;-80
2022/02/09 16:56:59;;;;;;;10.30;4.37;;;12.40;1.00;12.60;101245.00;;;;4916654;29;20464;-83
2022/02/09 17:19:34;;;;;;;7.93;4.63;;;11.90;1.00;12.30;101272.00;;;;4908714;29;20479;-83
2022/02/09 17:22:04;;;;;;;9.47;4.50;;;11.90;1.00;12.00;101255.00;;;;4903206;29;20450;-81
2022/02/09 17:24:34;;;;;;;7.00;4.50;;;11.90;1.00;12.20;101243.00;;;;4926208;29;20463;-82
2022/02/09 17:27:04;;;;;;;9.70;5.40;;;11.90;1.00;12.30;101218.00;;;;4944012;28;20468;-84
2022/02/09 17:29:46;;;;;;;10.60;4.70;;;11.90;1.00;12.10;101258.00;;;;4903077;29;20466;-83
2022/02/09 17:32:23;;;;;;;10.13;5.70;;;12.20;1.00;12.30;101243.00;;;;4900190;29;20464;-83
2022/02/09 17:35:01;;;;;;;9.43;5.10;;;12.00;1.00;12.30;101241.00;;;;4918531;29;20479;-83
2022/02/09 17:37:53;;;;;;;9.63;4.60;;;12.00;1.00;12.30;101228.00;;;;4892175;29;20483;-81
2022/02/09 17:54:51;;;;;;;11.10;5.97;;;12.00;1.00;12.10;101249.00;;;;4918531;29;20458;-82
2022/02/09 17:57:17;;;;;;;12.40;6.37;;;12.20;1.00;12.10;101254.00;;;;4906767;29;20504;-83
2022/02/09 17:59:57;;;;;;;9.77;6.10;;;11.80;1.00;11.90;101240.00;;;;4939950;29;20491;-84
2022/02/09 18:02:26;;;;;;;11.80;5.63;;;11.70;1.00;11.90;101284.00;;;;4919679;29;20521;-83
2022/02/09 18:04:54;;;;;;;7.57;5.30;;;11.60;1.00;11.90;101190.00;;;;4902868;29;20478;-82
2022/02/09 18:07:23;;;;;;;12.37;6.43;;;11.50;1.00;11.80;101237.00;;;;4921105;29;20846;-83
2022/02/09 18:09:53;;;;;;;11.53;6.60;;;11.50;1.00;11.70;101168.00;;;;4935531;29;20566;-85
2022/02/09 18:12:37;;;;;;;8.63;5.03;;;11.40;1.00;11.80;101177.00;;;;4901708;29;20535;-83
2022/02/09 18:15:27;;;;;;;9.97;5.53;;;11.40;1.00;11.70;101210.00;;;;4908582;29;21127;-83
2022/02/09 18:27:16;;;;;;;11.03;6.03;;;11.50;1.00;11.40;101164.00;;;;4916417;29;20465;-80
2022/02/09 18:29:43;;;;;;;8.60;6.13;;;11.10;1.00;11.30;101168.00;;;;4916166;29;20486;-81
2022/02/09 18:38:04;;;;;;;11.07;5.50;;;10.70;1.00;11.10;101230.00;;;;4901273;29;20469;-83
2022/02/09 18:43:23;;;;;;;9.00;5.57;;;10.50;1.00;10.90;101214.00;;;;4904632;29;20490;-83
2022/02/09 18:46:01;;;;;;;13.27;6.07;;;10.20;1.00;10.80;101190.00;;;;4935549;29;20463;-82
2022/02/09 18:49:05;;;;;;;10.97;5.80;;;10.40;1.00;10.60;101245.00;;;;4927596;29;20477;-82
2022/02/09 19:03:39;;;;;;;14.10;6.20;;;10.10;1.00;10.30;101196.00;;;;4820725;29;20515;-81
2022/02/09 19:14:25;;;;;;;11.10;6.93;;;9.80;1.00;10.30;101269.00;;;;4794578;29;20481;-81
2022/02/09 19:17:07;;;;;;;9.73;7.43;;;9.80;1.00;9.80;101204.00;;;;4779408;30;20476;-82
2022/02/09 19:20:22;;;;;;;13.57;6.77;;;9.80;1.00;10.00;101155.00;;;;4761832;30;21054;-83
2022/02/09 19:31:47;;;;;;;10.10;6.90;;;9.60;1.00;10.20;101186.00;;;;5131236;28;20440;-80
2022/02/09 19:45:50;;;;;;;11.93;7.43;;;9.50;1.00;10.00;101197.00;;;;5115185;27;20547;-80
2022/02/09 19:48:21;;;;;;;15.93;7.60;;;9.40;1.00;9.90;101195.00;;;;5143120;27;20498;-80
2022/02/09 19:51:05;;;;;;;9.43;6.40;;;9.80;1.00;9.90;101189.00;;;;5139368;28;20483;-80
2022/02/09 19:53:41;;;;;;;14.33;7.10;;;9.40;1.00;9.80;101189.00;;;;5136977;28;20814;-81
2022/02/09 19:56:14;;;;;;;10.83;6.70;;;9.50;1.00;9.80;101204.00;;;;5131660;27;20515;-81
2022/02/09 19:58:51;;;;;;;12.07;7.77;;;9.30;1.00;9.70;101207.00;;;;5124157;27;20480;-81
2022/02/09 20:01:27;;;;;;;10.23;6.60;;;9.20;1.00;9.70;101213.00;;;;5129562;28;20480;-80
2022/02/09 20:03:57;;;;;;;10.93;6.30;;;9.20;1.00;9.60;68396.00;;;;5146692;28;20471;-82
2022/02/09 20:06:26;;;;;;;11.67;6.30;;;9.20;1.00;9.60;101190.00;;;;5146493;27;20444;-80
2022/02/09 20:08:54;;;;;;;6.90;5.37;;;9.20;1.00;9.60;101207.00;;;;5126663;28;20503;-79
2022/02/09 20:11:24;;;;;;;11.87;6.53;;;9.10;1.00;9.60;101207.00;;;;5130046;28;20445;-80
2022/02/09 20:13:53;;;;;;;11.90;6.63;;;9.30;1.00;9.60;101212.00;;;;5139759;28;20444;-81
2022/02/09 20:16:24;;;;;;;10.43;6.77;;;9.20;1.00;9.70;101196.00;;;;5144931;27;20474;-81
2022/02/09 20:18:54;;;;;;;9.60;6.40;;;9.20;1.00;9.70;101180.00;;;;5142539;27;20481;-81
2022/02/09 20:21:29;;;;;;;8.00;5.73;;;9.20;1.00;9.80;101135.00;;;;5144744;28;20452;-83
2022/02/09 20:24:00;;;;;;;10.20;5.47;;;9.20;1.00;9.80;101204.00;;;;5153578;27;20540;-81
2022/02/09 20:26:29;;;;;;;10.00;6.00;;;9.30;1.00;9.60;101183.00;;;;5150594;27;20488;-79
2022/02/09 20:29:03;;;;;;;7.80;4.73;;;9.30;1.00;9.80;101176.00;;;;5139047;27;20758;-80